Time;durP1;ratioP1;P1;durP2;ratioP2;P2;SDS_P1;SDS_P2;PMS_P1;PMS_P2;Temp;Humidity;BMP_temperature;BMP_pressure;BME280_temperature;BME280_humidity;BME280_pressure;Samples;Min_cycle;Max_cycle;Signal;HPM_P1;HPM_P2
2021/12/16 00:05:10;;;;;;;4.28;1.90;;;18.60;53.40;;;;;;5114441;28;20088;-58
2021/12/16 00:07:16;;;;;;;2.97;2.00;;;18.60;53.40;;;;;;5102936;28;20028;-59
2021/12/16 00:09:57;;;;;;;2.38;2.08;;;18.60;53.40;;;;;;5114359;28;20054;-59
2021/12/16 00:34:03;;;;;;;2.25;2.05;;;18.60;53.40;;;;;;5113765;28;20032;-58
2021/12/16 00:36:33;;;;;;;2.17;1.95;;;18.60;53.40;;;;;;5113622;28;20466;-58
2021/12/16 00:39:02;;;;;;;3.85;2.28;;;18.50;53.40;;;;;;5113888;28;20020;-58
2021/12/16 00:41:27;;;;;;;2.65;2.25;;;18.50;53.40;;;;;;5114648;28;20078;-58
2021/12/16 00:44:23;;;;;;;2.20;1.83;;;18.60;53.50;;;;;;5096918;28;20015;-58
2021/12/16 00:46:54;;;;;;;3.38;2.00;;;18.60;53.50;;;;;;5097902;28;20027;-58
2021/12/16 00:54:32;;;;;;;2.03;1.90;;;18.60;53.50;;;;;;5116993;28;20031;-58
2021/12/16 00:57:04;;;;;;;2.63;2.17;;;18.50;53.40;;;;;;5117496;28;20477;-59
2021/12/16 00:59:35;;;;;;;2.13;1.92;;;18.50;53.40;;;;;;5100208;28;20113;-58
2021/12/16 01:02:37;;;;;;;2.20;2.00;;;18.50;53.40;;;;;;5118825;28;20028;-58
2021/12/16 01:07:51;;;;;;;3.50;2.40;;;18.50;53.40;;;;;;5096966;28;20075;-58
2021/12/16 01:50:53;;;;;;;3.28;1.95;;;18.40;53.60;;;;;;5096243;28;20035;-57
2021/12/16 01:53:53;;;;;;;2.45;2.15;;;18.40;53.50;;;;;;5096247;28;20024;-57
2021/12/16 01:56:56;;;;;;;2.78;2.22;;;18.40;53.50;;;;;;5095699;28;20040;-57
2021/12/16 01:59:01;;;;;;;2.63;2.28;;;18.40;53.50;;;;;;5090524;28;20093;-52
2021/12/16 02:01:31;;;;;;;2.58;2.10;;;18.40;53.50;;;;;;5096165;28;20103;-55
2021/12/16 02:04:02;;;;;;;2.00;1.80;;;18.40;53.60;;;;;;5094503;28;20028;-55
2021/12/16 02:09:10;;;;;;;3.00;2.20;;;18.40;53.50;;;;;;5116978;28;20024;-55
2021/12/16 02:27:47;;;;;;;2.78;2.20;;;18.40;53.60;;;;;;5116862;28;20099;-54
2021/12/16 02:35:59;;;;;;;2.20;2.00;;;18.30;53.50;;;;;;5101047;28;20032;-55
2021/12/16 02:38:28;;;;;;;2.20;2.00;;;18.40;53.60;;;;;;5116488;28;20023;-54
2021/12/16 02:40:54;;;;;;;2.67;2.45;;;18.40;53.60;;;;;;5116928;28;20028;-55
2021/12/16 02:48:39;;;;;;;2.42;1.77;;;18.40;53.60;;;;;;5116868;28;20031;-54
2021/12/16 02:51:16;;;;;;;2.05;1.85;;;18.40;53.60;;;;;;5116784;28;20027;-54
2021/12/16 02:53:45;;;;;;;3.47;2.25;;;18.30;53.60;;;;;;5116120;28;20023;-55
2021/12/16 02:56:10;;;;;;;2.25;1.98;;;18.30;53.60;;;;;;5116631;28;20017;-54
2021/12/16 02:58:38;;;;;;;2.78;2.03;;;18.30;53.60;;;;;;5116595;28;20027;-55
2021/12/16 03:01:09;;;;;;;2.70;2.08;;;18.30;53.60;;;;;;5097086;28;20028;-53
2021/12/16 03:03:38;;;;;;;2.83;2.20;;;18.40;53.60;;;;;;5115526;28;20071;-54
2021/12/16 03:06:04;;;;;;;2.05;1.85;;;18.30;53.60;;;;;;5115319;28;20023;-55
2021/12/16 03:08:32;;;;;;;2.85;2.30;;;18.30;53.60;;;;;;5115204;28;20056;-55
2021/12/16 03:13:50;;;;;;;2.33;2.00;;;18.30;53.60;;;;;;5116240;28;20028;-54
2021/12/16 03:16:25;;;;;;;2.30;2.00;;;18.30;53.50;;;;;;5115092;28;20085;-56
2021/12/16 03:19:08;;;;;;;2.50;2.13;;;18.30;53.50;;;;;;5114996;28;20072;-52
2021/12/16 03:21:37;;;;;;;3.08;2.20;;;18.30;53.60;;;;;;5100123;28;20098;-52
2021/12/16 03:24:34;;;;;;;2.63;2.25;;;18.30;53.60;;;;;;5097875;28;20016;-50
2021/12/16 03:30:19;;;;;;;2.33;2.03;;;18.30;53.60;;;;;;5115763;28;20108;-54
2021/12/16 03:37:53;;;;;;;2.67;2.28;;;18.30;53.70;;;;;;5116203;28;20023;-51
2021/12/16 03:40:19;;;;;;;3.20;2.08;;;18.30;53.70;;;;;;5115432;28;20012;-50
2021/12/16 03:42:51;;;;;;;2.40;2.03;;;18.30;53.70;;;;;;5115477;28;20035;-53
2021/12/16 03:48:17;;;;;;;2.80;2.10;;;18.30;53.60;;;;;;5114906;28;20050;-52
2021/12/16 03:50:43;;;;;;;2.47;2.28;;;18.30;53.70;;;;;;5096661;28;20019;-52
2021/12/16 03:53:13;;;;;;;2.30;2.00;;;18.30;53.60;;;;;;5096058;28;20042;-52
2021/12/16 03:55:39;;;;;;;2.33;2.03;;;18.30;53.70;;;;;;5114013;28;20016;-53
2021/12/16 03:58:06;;;;;;;2.22;2.03;;;18.30;53.70;;;;;;5113998;28;20482;-52
2021/12/16 04:00:36;;;;;;;2.33;2.03;;;18.20;53.70;;;;;;5113790;28;20069;-56
2021/12/16 04:03:03;;;;;;;2.05;1.85;;;18.30;53.70;;;;;;5114286;28;20016;-53
2021/12/16 04:05:29;;;;;;;3.15;2.25;;;18.30;53.70;;;;;;5114605;28;20117;-52
2021/12/16 04:07:55;;;;;;;2.30;2.10;;;18.30;53.70;;;;;;5114027;28;20063;-53
2021/12/16 04:10:35;;;;;;;2.30;1.85;;;18.20;53.70;;;;;;5113789;28;20490;-53
2021/12/16 04:13:05;;;;;;;3.20;1.80;;;18.30;53.70;;;;;;5113887;28;20565;-51
2021/12/16 04:15:31;;;;;;;2.58;2.00;;;18.30;53.70;;;;;;5114036;28;20116;-55
2021/12/16 04:17:57;;;;;;;2.70;2.15;;;18.30;53.60;;;;;;5114014;28;20381;-53
2021/12/16 04:20:23;;;;;;;4.25;2.38;;;18.40;53.40;;;;;;5113752;28;20378;-55
2021/12/16 04:22:49;;;;;;;2.03;1.80;;;18.50;53.10;;;;;;5113567;28;20420;-53
2021/12/16 04:25:30;;;;;;;2.72;2.13;;;18.50;52.90;;;;;;5113686;28;20019;-54
2021/12/16 04:27:57;;;;;;;1.80;1.70;;;18.60;52.80;;;;;;5113224;28;20026;-53
2021/12/16 04:30:24;;;;;;;2.42;2.03;;;18.60;52.80;;;;;;5113958;28;20004;-53
2021/12/16 04:32:51;;;;;;;3.03;2.00;;;18.70;52.60;;;;;;5113475;28;20023;-53
2021/12/16 04:35:17;;;;;;;2.05;1.85;;;18.80;52.40;;;;;;5095344;28;20020;-53
2021/12/16 04:37:42;;;;;;;2.00;1.80;;;18.90;52.10;;;;;;5113842;28;20509;-54
2021/12/16 04:40:10;;;;;;;5.28;2.17;;;19.00;52.00;;;;;;5114018;28;20073;-52
2021/12/16 04:42:37;;;;;;;2.10;1.83;;;19.10;51.70;;;;;;5114023;28;20031;-51
2021/12/16 04:45:06;;;;;;;2.05;1.85;;;19.10;51.60;;;;;;5113618;28;20493;-53
2021/12/16 04:47:32;;;;;;;2.35;1.80;;;19.20;51.50;;;;;;5095223;28;20039;-54
2021/12/16 04:49:59;;;;;;;2.53;1.90;;;19.20;51.40;;;;;;5113842;28;20011;-53
2021/12/16 04:52:25;;;;;;;2.35;1.88;;;19.30;51.30;;;;;;5095593;28;20102;-53
2021/12/16 04:54:51;;;;;;;2.63;2.00;;;19.40;51.00;;;;;;5095176;28;20047;-53
2021/12/16 04:57:16;;;;;;;3.05;2.10;;;19.40;50.80;;;;;;5113676;28;20155;-52
2021/12/16 04:59:43;;;;;;;2.20;1.90;;;19.50;50.70;;;;;;5095678;28;20027;-53
2021/12/16 05:02:11;;;;;;;1.75;1.65;;;19.60;50.50;;;;;;5095428;28;20024;-53
2021/12/16 05:04:38;;;;;;;2.10;1.90;;;19.70;50.30;;;;;;5113222;28;20457;-51
2021/12/16 05:07:05;;;;;;;2.38;2.00;;;19.80;50.20;;;;;;5113315;28;20043;-53
2021/12/16 05:12:07;;;;;;;2.55;1.90;;;20.00;49.70;;;;;;5113247;28;20031;-54
2021/12/16 05:14:33;;;;;;;1.63;1.52;;;20.10;49.50;;;;;;5113141;28;20039;-52
2021/12/16 05:16:59;;;;;;;2.17;1.80;;;20.20;49.40;;;;;;5113652;28;20012;-53
2021/12/16 05:19:25;;;;;;;2.20;2.00;;;20.20;49.10;;;;;;5113255;28;20028;-52
2021/12/16 05:24:13;;;;;;;2.00;1.80;;;20.30;48.90;;;;;;5112827;28;20371;-51
2021/12/16 05:24:37;;;;;;;2.05;1.85;;;20.40;48.80;;;;;;5112444;28;20027;-51
2021/12/16 05:27:06;;;;;;;2.08;1.85;;;20.50;48.60;;;;;;5113048;28;20015;-53
2021/12/16 05:29:32;;;;;;;3.28;1.90;;;20.60;48.50;;;;;;5113249;28;20008;-52
2021/12/16 05:31:58;;;;;;;1.52;1.42;;;20.70;48.30;;;;;;5112952;28;20035;-48
2021/12/16 05:34:24;;;;;;;2.83;2.05;;;20.70;48.70;;;;;;5113238;28;20050;-53
2021/12/16 05:36:50;;;;;;;2.20;1.92;;;20.80;48.00;;;;;;5094938;28;20451;-52
2021/12/16 05:39:16;;;;;;;1.90;1.70;;;20.90;47.90;;;;;;5114590;28;20057;-53
2021/12/16 05:41:42;;;;;;;1.77;1.58;;;20.90;47.70;;;;;;5099108;28;20047;-50
2021/12/16 05:44:08;;;;;;;2.38;1.90;;;21.00;47.60;;;;;;5117993;28;20015;-52
2021/12/16 05:46:35;;;;;;;2.58;2.00;;;21.10;47.50;;;;;;5117446;28;20004;-51
2021/12/16 05:49:01;;;;;;;2.22;1.88;;;21.10;47.40;;;;;;5117381;28;20012;-53
2021/12/16 05:51:31;;;;;;;1.70;1.60;;;21.10;47.30;;;;;;5117581;28;20028;-52
2021/12/16 05:53:58;;;;;;;2.35;1.92;;;21.20;47.30;;;;;;5116999;28;20019;-51
2021/12/16 05:56:24;;;;;;;1.90;1.70;;;21.30;47.30;;;;;;5099240;28;20473;-51
2021/12/16 05:58:50;;;;;;;1.80;1.70;;;21.30;47.10;;;;;;5117425;28;20031;-51
2021/12/16 06:01:21;;;;;;;1.90;1.70;;;21.40;47.00;;;;;;5116672;28;20545;-53
2021/12/16 06:03:47;;;;;;;2.00;1.80;;;21.40;46.90;;;;;;5116894;28;20022;-53
2021/12/16 06:06:15;;;;;;;2.28;1.88;;;21.40;46.90;;;;;;5117744;28;20039;-53
2021/12/16 06:08:42;;;;;;;1.70;1.58;;;21.40;46.80;;;;;;5116855;28;20051;-52
2021/12/16 06:11:21;;;;;;;1.70;1.60;;;21.50;46.80;;;;;;5117141;28;20023;-53
2021/12/16 06:13:58;;;;;;;1.92;1.60;;;21.50;46.70;;;;;;5117367;28;20065;-53
2021/12/16 06:27:27;;;;;;;2.50;1.95;;;21.70;46.50;;;;;;5087153;28;20016;-51
2021/12/16 06:29:53;;;;;;;2.35;1.88;;;21.70;46.40;;;;;;5097977;28;20016;-54
2021/12/16 06:32:19;;;;;;;2.20;1.60;;;21.70;46.40;;;;;;5080865;28;20040;-53
2021/12/16 06:34:45;;;;;;;1.95;1.60;;;21.70;46.40;;;;;;5116047;28;20039;-52
2021/12/16 06:37:11;;;;;;;2.88;2.00;;;21.80;46.40;;;;;;5097406;28;20020;-52
2021/12/16 06:39:37;;;;;;;2.03;1.80;;;21.80;46.30;;;;;;5097546;28;20047;-51
2021/12/16 06:42:06;;;;;;;2.15;1.83;;;21.80;46.30;;;;;;5115229;28;20023;-52
2021/12/16 06:44:50;;;;;;;2.15;1.50;;;21.90;46.30;;;;;;5115308;28;20027;-54
2021/12/16 06:47:21;;;;;;;2.28;1.75;;;21.90;46.20;;;;;;5099817;28;20077;-53
2021/12/16 06:49:49;;;;;;;2.35;1.92;;;22.00;46.20;;;;;;5097965;28;20026;-53
2021/12/16 06:52:17;;;;;;;2.88;2.40;;;22.00;46.10;;;;;;5114788;28;20073;-52
2021/12/16 06:55:04;;;;;;;3.47;2.63;;;22.00;45.80;;;;;;5115266;28;20501;-54
2021/12/16 07:00:27;;;;;;;4.25;3.50;;;22.00;45.90;;;;;;5115399;28;20035;-53
2021/12/16 07:02:57;;;;;;;6.95;3.25;;;22.10;45.70;;;;;;5114045;28;20462;-52
2021/12/16 07:05:41;;;;;;;4.85;2.95;;;22.10;45.70;;;;;;5114552;28;20011;-52
2021/12/16 07:08:16;;;;;;;3.03;2.70;;;22.00;45.90;;;;;;5113899;28;20083;-53
2021/12/16 07:10:45;;;;;;;3.20;2.60;;;22.00;45.90;;;;;;5113770;28;20493;-50
2021/12/16 07:13:17;;;;;;;5.40;2.50;;;22.10;46.00;;;;;;5096070;28;20016;-54
2021/12/16 07:15:43;;;;;;;3.95;2.47;;;22.10;45.90;;;;;;5113778;28;20117;-53
2021/12/16 07:18:10;;;;;;;5.80;2.75;;;22.10;45.90;;;;;;5095260;28;20016;-54
2021/12/16 07:20:36;;;;;;;5.63;2.28;;;22.10;45.90;;;;;;5077394;28;20091;-54
2021/12/16 07:23:03;;;;;;;5.57;2.67;;;22.10;45.90;;;;;;5113521;28;20106;-53
2021/12/16 07:25:28;;;;;;;5.25;2.40;;;22.20;45.90;;;;;;5114202;28;20008;-53
2021/12/16 07:27:55;;;;;;;4.07;2.15;;;22.20;45.80;;;;;;5096057;28;20500;-53
2021/12/16 07:30:23;;;;;;;3.83;2.70;;;22.20;45.90;;;;;;5113920;28;20019;-53
2021/12/16 07:32:49;;;;;;;2.25;1.85;;;22.20;45.80;;;;;;5113865;28;20065;-53
2021/12/16 07:35:18;;;;;;;5.93;2.50;;;22.30;45.80;;;;;;5114089;28;20045;-54
2021/12/16 07:37:44;;;;;;;4.32;2.10;;;22.30;45.70;;;;;;5114187;28;20012;-52
2021/12/16 07:40:11;;;;;;;6.85;2.28;;;22.30;45.80;;;;;;5096187;28;20069;-50
2021/12/16 07:42:47;;;;;;;5.50;2.50;;;22.30;45.70;;;;;;5113973;28;20595;-53
2021/12/16 07:45:16;;;;;;;4.78;2.17;;;22.30;45.80;;;;;;5114352;28;20043;-52
2021/12/16 07:47:42;;;;;;;4.72;2.17;;;22.30;45.90;;;;;;5114223;28;20095;-52
2021/12/16 07:50:11;;;;;;;3.83;2.50;;;22.30;45.90;;;;;;5114495;28;20083;-54
2021/12/16 07:52:37;;;;;;;3.33;2.50;;;22.30;46.00;;;;;;5113947;28;20431;-53
2021/12/16 07:55:04;;;;;;;2.53;1.90;;;22.20;46.10;;;;;;5114334;28;20054;-53
2021/12/16 07:57:29;;;;;;;4.13;2.38;;;22.20;46.20;;;;;;5095912;28;20046;-54
2021/12/16 07:59:55;;;;;;;4.93;2.40;;;22.10;46.30;;;;;;5113823;28;20427;-53
2021/12/16 08:02:22;;;;;;;3.05;1.95;;;22.00;46.40;;;;;;5113177;28;20036;-55
2021/12/16 08:04:49;;;;;;;3.70;2.15;;;22.00;46.60;;;;;;5095373;28;20355;-53
2021/12/16 08:07:18;;;;;;;2.85;1.92;;;21.90;46.80;;;;;;5113332;28;20051;-51
2021/12/16 08:09:44;;;;;;;3.17;2.10;;;21.90;46.90;;;;;;5113361;28;20378;-53
2021/12/16 08:12:12;;;;;;;3.50;2.20;;;21.80;46.90;;;;;;5095353;28;20030;-54
2021/12/16 08:14:38;;;;;;;3.75;2.30;;;21.80;47.00;;;;;;5113744;28;20032;-53
2021/12/16 08:17:04;;;;;;;2.95;2.20;;;21.80;47.20;;;;;;5113565;28;20015;-51
2021/12/16 08:19:33;;;;;;;2.38;2.17;;;21.80;47.20;;;;;;5095393;28;20523;-53
2021/12/16 08:22:00;;;;;;;2.58;1.95;;;21.70;47.20;;;;;;5113976;28;20023;-52
2021/12/16 08:24:25;;;;;;;3.00;2.05;;;21.70;47.30;;;;;;5113177;28;20484;-54
2021/12/16 08:26:53;;;;;;;2.67;1.90;;;21.70;47.30;;;;;;5113373;28;20015;-52
2021/12/16 08:29:19;;;;;;;3.10;1.90;;;21.70;47.40;;;;;;5113502;28;20008;-52
2021/12/16 08:31:45;;;;;;;3.35;1.95;;;21.70;47.40;;;;;;5113223;28;20440;-50
2021/12/16 08:34:11;;;;;;;2.25;1.80;;;21.70;47.40;;;;;;5113218;28;20022;-54
2021/12/16 08:36:37;;;;;;;2.75;1.80;;;21.70;47.40;;;;;;5112540;28;20048;-54
2021/12/16 08:39:07;;;;;;;2.42;2.00;;;21.70;47.40;;;;;;5094349;28;20016;-54
2021/12/16 08:41:35;;;;;;;2.92;1.88;;;21.70;47.50;;;;;;5112556;28;20039;-53
2021/12/16 08:44:01;;;;;;;2.33;1.88;;;21.70;47.40;;;;;;5112515;28;20049;-53
2021/12/16 08:46:28;;;;;;;2.72;1.88;;;21.70;47.50;;;;;;5112337;28;20124;-54
2021/12/16 08:48:54;;;;;;;2.85;1.95;;;21.70;47.50;;;;;;5093876;28;20027;-53
2021/12/16 08:51:21;;;;;;;2.08;1.85;;;21.70;47.60;;;;;;5112539;28;20190;-54
2021/12/16 08:53:48;;;;;;;2.50;1.95;;;21.70;47.50;;;;;;5111987;28;20050;-54
2021/12/16 08:56:15;;;;;;;2.67;2.00;;;21.70;47.50;;;;;;5112238;28;20470;-53
2021/12/16 08:58:41;;;;;;;2.55;1.83;;;21.70;47.60;;;;;;5112647;28;20026;-52
2021/12/16 09:01:10;;;;;;;2.63;2.10;;;21.70;47.50;;;;;;5112322;28;20374;-53
2021/12/16 09:03:35;;;;;;;3.95;2.15;;;21.70;47.50;;;;;;5112036;28;20007;-54
2021/12/16 09:06:02;;;;;;;3.53;1.90;;;21.70;47.50;;;;;;5112147;28;20011;-52
2021/12/16 09:08:29;;;;;;;2.53;1.65;;;21.70;47.60;;;;;;5111616;28;20146;-56
2021/12/16 09:10:54;;;;;;;3.17;2.15;;;21.70;47.50;;;;;;5093870;28;20020;-54
2021/12/16 09:13:20;;;;;;;2.63;1.60;;;21.70;47.50;;;;;;5076846;28;20436;-56
2021/12/16 09:15:52;;;;;;;2.92;1.95;;;21.80;47.60;;;;;;5116037;28;20076;-53
2021/12/16 09:18:23;;;;;;;2.72;1.80;;;21.70;47.60;;;;;;5116889;28;20062;-52
2021/12/16 09:20:52;;;;;;;2.00;1.70;;;21.70;47.60;;;;;;5108279;22;20071;-73
2021/12/16 09:23:20;;;;;;;2.17;1.75;;;21.70;47.60;;;;;;5081272;28;20120;-72
2021/12/16 09:25:47;;;;;;;2.97;1.85;;;21.70;47.60;;;;;;5084399;28;20084;-74
2021/12/16 09:28:14;;;;;;;3.03;1.83;;;21.70;47.60;;;;;;5081527;28;20017;-73
2021/12/16 09:30:40;;;;;;;2.65;1.90;;;21.80;48.20;;;;;;5083262;28;20015;-73
2021/12/16 09:33:13;;;;;;;3.38;1.80;;;21.70;47.60;;;;;;5082463;28;20424;-73
2021/12/16 09:35:39;;;;;;;2.50;1.90;;;21.80;47.60;;;;;;5083734;28;20048;-74
2021/12/16 09:38:06;;;;;;;2.40;1.90;;;21.80;47.60;;;;;;5085033;28;20606;-74
2021/12/16 09:40:35;;;;;;;2.00;1.80;;;21.70;47.60;;;;;;5064509;28;20111;-73
2021/12/16 09:43:03;;;;;;;2.50;1.63;;;21.70;47.70;;;;;;5082289;28;20017;-72
2021/12/16 09:45:29;;;;;;;2.67;1.60;;;21.70;47.70;;;;;;5062141;28;20013;-73
2021/12/16 09:47:55;;;;;;;3.08;1.90;;;21.80;47.70;;;;;;5080942;28;20024;-72
2021/12/16 09:50:25;;;;;;;2.78;1.90;;;21.80;47.70;;;;;;5079443;28;20023;-73
2021/12/16 09:52:53;;;;;;;3.33;1.67;;;21.80;47.70;;;;;;5061577;28;20025;-73
2021/12/16 09:55:19;;;;;;;2.63;1.80;;;21.70;47.80;;;;;;5061974;28;20289;-72
2021/12/16 09:57:46;;;;;;;2.28;1.67;;;21.70;47.80;;;;;;5077573;28;20012;-72
2021/12/16 10:00:12;;;;;;;2.03;1.80;;;21.80;47.70;;;;;;5077533;28;20052;-73
2021/12/16 10:02:38;;;;;;;1.88;1.70;;;21.80;47.70;;;;;;5079174;28;20024;-74
2021/12/16 10:05:05;;;;;;;2.85;2.00;;;21.80;47.70;;;;;;5076973;28;20021;-74
2021/12/16 10:07:33;;;;;;;2.20;1.70;;;21.80;47.70;;;;;;5060350;28;20517;-73
2021/12/16 10:10:03;;;;;;;3.67;1.73;;;21.80;47.80;;;;;;5060451;28;20013;-73
2021/12/16 10:12:34;;;;;;;2.00;1.70;;;21.80;47.70;;;;;;5060209;28;20025;-74
2021/12/16 10:15:03;;;;;;;;;;;21.80;47.70;;;;;;5062076;28;20123;-74
2021/12/16 10:17:32;;;;;;;1.85;1.65;;;21.80;47.70;;;;;;5044104;28;19904;-74
2021/12/16 10:20:20;;;;;;;3.05;1.88;;;21.80;47.70;;;;;;5040281;28;20048;-74
2021/12/16 10:22:47;;;;;;;4.18;2.00;;;21.80;47.60;;;;;;5057023;28;20017;-73
2021/12/16 10:25:33;;;;;;;2.45;1.92;;;21.80;47.70;;;;;;5040601;28;20013;-73
2021/12/16 10:28:11;;;;;;;2.17;1.60;;;21.80;47.70;;;;;;5057383;28;20064;-73
2021/12/16 10:30:45;;;;;;;2.78;1.88;;;21.80;47.70;;;;;;5044579;28;20017;-73
2021/12/16 10:33:16;;;;;;;2.08;1.88;;;21.80;47.70;;;;;;5068523;28;20051;-75
2021/12/16 10:35:41;;;;;;;3.72;2.08;;;21.80;47.70;;;;;;5087299;28;20013;-73
2021/12/16 10:38:08;;;;;;;2.45;1.80;;;21.80;47.70;;;;;;5071244;28;20023;-75
2021/12/16 10:40:50;;;;;;;5.07;2.15;;;21.80;47.70;;;;;;5073325;28;20013;-75
2021/12/16 10:43:22;;;;;;;2.20;1.80;;;21.90;47.70;;;;;;5074426;28;20021;-75
2021/12/16 10:45:57;;;;;;;4.13;1.90;;;21.90;47.70;;;;;;5074893;28;20022;-75
2021/12/16 10:48:24;;;;;;;2.63;1.80;;;21.90;47.70;;;;;;5073507;28;20036;-74
2021/12/16 10:50:55;;;;;;;3.33;1.70;;;21.90;47.70;;;;;;5074732;28;20028;-74
2021/12/16 10:53:46;;;;;;;2.20;1.70;;;21.90;47.70;;;;;;5089183;28;20024;-72
2021/12/16 10:56:12;;;;;;;2.53;2.00;;;21.90;47.70;;;;;;5071318;28;20097;-73
2021/12/16 10:59:00;;;;;;;1.70;1.60;;;21.90;47.70;;;;;;5053595;28;20017;-75
2021/12/16 11:01:36;;;;;;;2.45;1.90;;;21.90;47.70;;;;;;5089386;28;20033;-75
2021/12/16 11:04:12;;;;;;;1.92;1.60;;;21.90;47.70;;;;;;5088242;28;20066;-73
2021/12/16 11:06:41;;;;;;;3.55;1.80;;;21.90;47.60;;;;;;5072462;28;20077;-74
2021/12/16 11:09:27;;;;;;;1.90;1.60;;;21.90;47.60;;;;;;5089987;28;20045;-75
2021/12/16 11:12:24;;;;;;;2.17;1.85;;;21.90;47.60;;;;;;5073625;28;20017;-74
2021/12/16 11:14:54;;;;;;;3.20;1.83;;;21.90;47.60;;;;;;5074498;28;20052;-74
2021/12/16 11:17:23;;;;;;;3.42;1.90;;;22.00;47.60;;;;;;5074092;28;20000;-75
2021/12/16 11:19:57;;;;;;;2.92;1.60;;;21.90;47.60;;;;;;5089481;28;20056;-75
2021/12/16 11:22:29;;;;;;;4.28;1.80;;;22.00;47.60;;;;;;5076048;28;20020;-75
2021/12/16 11:24:55;;;;;;;2.22;1.90;;;22.00;47.50;;;;;;5074794;28;20008;-75
2021/12/16 11:27:23;;;;;;;2.63;2.03;;;22.00;47.50;;;;;;5075134;28;20027;-76
2021/12/16 11:29:49;;;;;;;2.13;1.50;;;22.00;47.50;;;;;;5075424;28;20101;-75
2021/12/16 11:33:00;;;;;;;2.70;1.77;;;22.00;47.50;;;;;;5092262;28;20013;-75
2021/12/16 11:35:30;;;;;;;3.28;1.90;;;22.00;47.50;;;;;;5076226;28;20049;-73
2021/12/16 11:37:57;;;;;;;2.00;1.67;;;22.00;47.50;;;;;;5076033;28;20024;-76
2021/12/16 11:40:24;;;;;;;3.05;1.63;;;22.00;47.50;;;;;;5076061;28;20033;-75
2021/12/16 11:43:08;;;;;;;2.78;1.60;;;22.00;47.50;;;;;;5058478;28;20021;-76
2021/12/16 11:45:58;;;;;;;2.13;1.65;;;22.10;47.50;;;;;;5075778;28;20013;-76
2021/12/16 11:48:36;;;;;;;2.23;1.87;;;22.10;47.50;;;;;;5077879;28;20035;-75
2021/12/16 11:51:19;;;;;;;2.33;1.60;;;22.10;47.40;;;;;;5093245;28;20289;-75
2021/12/16 11:53:54;;;;;;;1.83;1.67;;;22.10;47.40;;;;;;5089842;28;20021;-75
2021/12/16 11:56:32;;;;;;;2.08;1.67;;;22.10;47.40;;;;;;5090688;28;20016;-75
2021/12/16 11:58:58;;;;;;;2.63;1.80;;;22.10;47.40;;;;;;5075468;28;20011;-76
2021/12/16 12:01:24;;;;;;;2.55;1.73;;;22.10;47.30;;;;;;5076170;28;20037;-75
2021/12/16 12:03:49;;;;;;;3.83;1.92;;;22.10;47.30;;;;;;5076531;28;20048;-75
2021/12/16 12:06:24;;;;;;;3.25;1.70;;;22.20;47.30;;;;;;5076461;28;20017;-74
2021/12/16 12:08:51;;;;;;;1.60;1.50;;;22.20;47.30;;;;;;5076288;28;20004;-76
2021/12/16 12:11:30;;;;;;;2.63;1.90;;;22.20;47.20;;;;;;5076223;28;20028;-74
2021/12/16 12:14:02;;;;;;;2.63;1.85;;;22.20;47.20;;;;;;5092439;28;20013;-75
2021/12/16 12:16:39;;;;;;;2.70;1.67;;;22.20;47.20;;;;;;5075899;28;20020;-76
2021/12/16 12:19:19;;;;;;;2.13;1.70;;;22.20;47.80;;;;;;5091885;28;20009;-76
2021/12/16 12:21:46;;;;;;;3.22;1.88;;;22.20;47.30;;;;;;5055137;28;20052;-73
2021/12/16 12:24:25;;;;;;;3.50;1.70;;;22.20;47.30;;;;;;5071614;28;20021;-72
2021/12/16 12:26:59;;;;;;;1.83;1.58;;;22.20;47.30;;;;;;5071084;28;20017;-73
2021/12/16 12:29:30;;;;;;;2.08;1.80;;;22.20;47.40;;;;;;5053870;28;20025;-73
2021/12/16 12:32:18;;;;;;;3.20;1.80;;;22.20;47.40;;;;;;5087225;28;20021;-73
2021/12/16 12:34:47;;;;;;;4.07;1.70;;;22.20;47.40;;;;;;5052764;28;20017;-71
2021/12/16 12:37:14;;;;;;;2.38;1.92;;;22.20;47.30;;;;;;5067368;28;20103;-73
2021/12/16 12:39:45;;;;;;;5.20;1.90;;;22.20;47.90;;;;;;5066006;28;20012;-74
2021/12/16 12:42:11;;;;;;;;;;;22.20;47.30;;;;;;5062859;28;20029;-72
2021/12/16 12:44:37;;;;;;;3.97;2.08;;;22.20;47.20;;;;;;5064226;28;19901;-74
2021/12/16 12:47:06;;;;;;;2.85;1.90;;;22.20;47.30;;;;;;5063033;28;20514;-73
2021/12/16 12:49:32;;;;;;;2.22;1.60;;;22.30;47.30;;;;;;5058321;28;20014;-72
2021/12/16 12:52:03;;;;;;;2.22;1.70;;;22.20;47.30;;;;;;5042441;28;20024;-72
2021/12/16 12:54:29;;;;;;;;;;;22.30;47.30;;;;;;5058409;28;20031;-72
2021/12/16 12:56:57;;;;;;;2.00;1.60;;;22.30;47.30;;;;;;5055973;28;19940;-71
2021/12/16 12:59:43;;;;;;;2.10;1.73;;;22.30;47.30;;;;;;5055615;28;20013;-73
2021/12/16 13:02:15;;;;;;;2.55;1.95;;;22.30;47.40;;;;;;5054275;28;20045;-71
2021/12/16 13:04:53;;;;;;;2.20;1.63;;;22.30;47.40;;;;;;5070509;28;20009;-71
2021/12/16 13:07:30;;;;;;;2.90;1.50;;;22.20;47.40;;;;;;5054331;28;20055;-73
2021/12/16 13:09:56;;;;;;;3.05;1.98;;;22.20;47.30;;;;;;5053748;28;20071;-73
2021/12/16 13:12:24;;;;;;;1.85;1.40;;;22.30;47.30;;;;;;5053581;28;20025;-70
2021/12/16 13:15:02;;;;;;;2.25;1.80;;;22.30;47.30;;;;;;5054904;28;20013;-73
2021/12/16 13:28:14;;;;;;;2.70;1.70;;;22.30;47.20;;;;;;5053224;28;20094;-72
2021/12/16 13:30:51;;;;;;;2.53;1.90;;;22.40;47.30;;;;;;5037966;28;20013;-72
2021/12/16 13:33:25;;;;;;;3.38;1.80;;;22.40;47.70;;;;;;5053869;28;20054;-73
2021/12/16 13:36:05;;;;;;;2.00;1.58;;;22.40;47.20;;;;;;5069641;28;20482;-72
2021/12/16 13:38:41;;;;;;;1.80;1.70;;;22.30;47.20;;;;;;5054858;28;20018;-72
2021/12/16 13:41:22;;;;;;;2.08;1.83;;;22.30;47.20;;;;;;5055407;28;20084;-72
2021/12/16 13:44:18;;;;;;;2.17;1.83;;;22.40;47.30;;;;;;5052912;28;20009;-71
2021/12/16 13:47:53;;;;;;;2.20;1.60;;;22.40;47.30;;;;;;5053677;28;20029;-72
2021/12/16 14:00:01;;;;;;;3.22;1.90;;;22.30;47.20;;;;;;5053677;28;20074;-71
2021/12/16 14:02:03;;;;;;;2.05;1.70;;;22.30;47.30;;;;;;5070484;28;20033;-72
2021/12/16 14:10:07;;;;;;;2.65;1.90;;;22.30;47.30;;;;;;5057571;28;20536;-72
2021/12/16 14:17:45;;;;;;;2.03;1.70;;;22.30;47.50;;;;;;5058780;28;20025;-74
2021/12/16 14:23:08;;;;;;;2.42;1.80;;;22.30;47.40;;;;;;5078597;28;20058;-72
2021/12/16 14:50:10;;;;;;;2.00;1.80;;;22.10;47.80;;;;;;5077507;28;20485;-72
2021/12/16 14:52:37;;;;;;;2.55;1.88;;;22.10;48.00;;;;;;5061037;28;20046;-72
2021/12/16 14:55:08;;;;;;;2.85;1.77;;;22.00;48.00;;;;;;5077535;28;20024;-71
2021/12/16 14:57:40;;;;;;;2.15;1.80;;;22.00;48.10;;;;;;5060624;28;20013;-73
2021/12/16 15:00:30;;;;;;;1.95;1.75;;;21.90;48.20;;;;;;5078002;28;20458;-72
2021/12/16 15:03:04;;;;;;;2.28;1.73;;;21.90;48.40;;;;;;5059537;28;20021;-72
2021/12/16 15:05:39;;;;;;;2.10;1.70;;;21.80;48.40;;;;;;5061414;28;20012;-73
2021/12/16 15:08:15;;;;;;;1.88;1.50;;;21.80;48.60;;;;;;5062365;28;20019;-73
2021/12/16 15:10:42;;;;;;;2.35;1.50;;;21.70;48.60;;;;;;5077943;28;20493;-73
2021/12/16 15:13:15;;;;;;;3.22;2.17;;;21.70;48.60;;;;;;5059250;28;20024;-74
2021/12/16 15:16:05;;;;;;;2.20;1.70;;;21.70;48.70;;;;;;5078671;28;20074;-75
2021/12/16 15:38:22;;;;;;;3.67;2.00;;;21.40;49.60;;;;;;5077504;28;20020;-74
2021/12/16 15:43:33;;;;;;;2.60;2.00;;;21.30;49.60;;;;;;5060804;28;20387;-74
2021/12/16 15:45:59;;;;;;;2.30;2.10;;;21.30;49.60;;;;;;5058688;28;20036;-74
2021/12/16 15:48:27;;;;;;;2.47;2.00;;;21.30;49.60;;;;;;5058721;28;20005;-73
2021/12/16 15:51:08;;;;;;;2.97;1.90;;;21.30;49.60;;;;;;5074610;28;20016;-73
2021/12/16 15:53:36;;;;;;;2.08;1.88;;;21.30;50.20;;;;;;5057543;28;20095;-73
2021/12/16 15:56:29;;;;;;;2.30;1.90;;;21.30;49.70;;;;;;5074373;28;20013;-74
2021/12/16 15:59:05;;;;;;;2.38;1.98;;;21.20;49.90;;;;;;5055362;28;20576;-73
2021/12/16 16:01:40;;;;;;;3.50;2.20;;;21.20;49.90;;;;;;5057628;28;20036;-74
2021/12/16 16:04:34;;;;;;;5.43;2.08;;;21.20;50.00;;;;;;5057883;28;20009;-73
2021/12/16 16:07:33;;;;;;;3.03;2.03;;;21.10;50.00;;;;;;5057561;28;20039;-74
2021/12/16 16:10:01;;;;;;;3.40;1.90;;;21.10;50.10;;;;;;5074673;28;20052;-73
2021/12/16 16:12:30;;;;;;;2.80;2.00;;;21.00;50.20;;;;;;5074753;28;20028;-76
2021/12/16 16:15:00;;;;;;;3.22;2.00;;;21.00;50.30;;;;;;5074568;28;20024;-75
2021/12/16 16:17:25;;;;;;;2.30;2.10;;;21.00;50.40;;;;;;5074814;28;20017;-76
2021/12/16 16:19:56;;;;;;;3.70;2.15;;;20.90;50.50;;;;;;5074195;28;20049;-73
2021/12/16 16:22:22;;;;;;;2.42;1.92;;;20.90;50.60;;;;;;5074481;28;20028;-72
2021/12/16 16:24:50;;;;;;;2.15;1.80;;;20.90;50.50;;;;;;5040743;28;20356;-72
2021/12/16 16:27:18;;;;;;;2.55;1.90;;;20.90;50.60;;;;;;5057246;28;20501;-72
2021/12/16 16:29:58;;;;;;;2.20;2.00;;;20.90;50.60;;;;;;5076087;28;20016;-72
2021/12/16 16:32:25;;;;;;;2.13;1.83;;;20.90;51.30;;;;;;5076572;28;20019;-74
2021/12/16 16:34:53;;;;;;;2.38;2.10;;;20.90;50.70;;;;;;5074417;28;20494;-74
2021/12/16 16:37:32;;;;;;;2.80;2.03;;;20.80;50.70;;;;;;5057667;28;20020;-72
2021/12/16 16:40:06;;;;;;;2.50;2.05;;;20.80;50.80;;;;;;5057208;28;20110;-74
2021/12/16 16:42:37;;;;;;;2.28;1.85;;;20.80;50.80;;;;;;5056948;28;20099;-74